Time;durP1;ratioP1;P1;durP2;ratioP2;P2;SDS_P1;SDS_P2;PMS_P1;PMS_P2;Temp;Humidity;BMP_temperature;BMP_pressure;BME280_temperature;BME280_humidity;BME280_pressure;Samples;Min_cycle;Max_cycle;Signal;HPM_P1;HPM_P2
2021/10/08 00:01:38;;;;;;;34.58;16.60;;;;;;;;;;5013639;28;20052;-61
2021/10/08 00:04:05;;;;;;;35.05;16.77;;;;;;;;;;5039851;22;20506;-56
2021/10/08 00:06:32;;;;;;;36.17;16.23;;;;;;;;;;5033689;28;20055;-58
2021/10/08 00:08:59;;;;;;;36.00;16.05;;;;;;;;;;5033653;28;20549;-58
2021/10/08 00:11:28;;;;;;;35.92;16.02;;;;;;;;;;5033708;28;20509;-55
2021/10/08 00:13:55;;;;;;;32.90;16.10;;;;;;;;;;5033463;28;20056;-57
2021/10/08 00:16:22;;;;;;;33.22;16.17;;;;;;;;;;5033623;28;20053;-60
2021/10/08 00:18:50;;;;;;;33.78;17.10;;;;;;;;;;5033223;28;20132;-58
2021/10/08 00:21:17;;;;;;;38.28;17.40;;;;;;;;;;5033203;28;20053;-57
2021/10/08 00:23:44;;;;;;;37.08;18.40;;;;;;;;;;5033051;28;20053;-57
2021/10/08 00:26:11;;;;;;;35.63;16.08;;;;;;;;;;5033369;28;20057;-60
2021/10/08 00:28:40;;;;;;;36.45;16.83;;;;;;;;;;5033156;28;20067;-58
2021/10/08 00:31:07;;;;;;;37.53;16.48;;;;;;;;;;5033078;28;20050;-60
2021/10/08 00:33:34;;;;;;;34.25;15.70;;;;;;;;;;5033269;28;20054;-57
2021/10/08 00:36:01;;;;;;;35.13;16.83;;;;;;;;;;5033069;28;20053;-59
2021/10/08 00:38:28;;;;;;;32.78;15.18;;;;;;;;;;5032677;28;20045;-57
2021/10/08 00:40:55;;;;;;;31.40;15.02;;;;;;;;;;5032915;28;20049;-60
2021/10/08 00:43:23;;;;;;;30.80;15.18;;;;;;;;;;5033109;28;20487;-59
2021/10/08 00:45:52;;;;;;;29.33;14.23;;;;;;;;;;5032819;28;20052;-58
2021/10/08 00:48:19;;;;;;;28.42;13.57;;;;;;;;;;5031871;28;20085;-59
2021/10/08 00:50:49;;;;;;;34.47;16.13;;;;;;;;;;5032715;28;20063;-58
2021/10/08 00:53:17;;;;;;;33.67;15.00;;;;;;;;;;5032530;28;20057;-59
2021/10/08 00:55:50;;;;;;;37.88;17.27;;;;;;;;;;5033057;28;20056;-56
2021/10/08 00:58:18;;;;;;;35.58;17.08;;;;;;;;;;5032364;28;20056;-58
2021/10/08 01:00:47;;;;;;;34.75;16.35;;;;;;;;;;5032589;28;20560;-60
2021/10/08 01:03:17;;;;;;;36.20;17.85;;;;;;;;;;5032688;28;20060;-56
2021/10/08 01:05:44;;;;;;;36.97;17.73;;;;;;;;;;5032794;28;20506;-57
2021/10/08 01:08:12;;;;;;;35.08;17.35;;;;;;;;;;5032505;28;20053;-56
2021/10/08 01:10:39;;;;;;;34.72;16.85;;;;;;;;;;5032635;28;20057;-58
2021/10/08 01:13:07;;;;;;;38.10;18.55;;;;;;;;;;5032434;28;20064;-56
2021/10/08 01:15:34;;;;;;;37.85;17.65;;;;;;;;;;5032317;28;20454;-58
2021/10/08 01:18:01;;;;;;;41.83;16.95;;;;;;;;;;5032524;28;20491;-59
2021/10/08 01:20:30;;;;;;;33.22;16.73;;;;;;;;;;5032332;28;20069;-59
2021/10/08 01:22:58;;;;;;;42.45;19.17;;;;;;;;;;5032342;28;20410;-57
2021/10/08 01:25:27;;;;;;;41.33;17.92;;;;;;;;;;5032054;28;20100;-59
2021/10/08 01:27:55;;;;;;;43.05;20.65;;;;;;;;;;5032279;28;20053;-59
2021/10/08 01:30:22;;;;;;;42.35;19.38;;;;;;;;;;5032089;28;20415;-56
2021/10/08 01:32:49;;;;;;;39.85;16.88;;;;;;;;;;5032025;28;20045;-54
2021/10/08 01:35:17;;;;;;;39.45;17.65;;;;;;;;;;5031998;28;20056;-57
2021/10/08 01:37:46;;;;;;;42.95;17.42;;;;;;;;;;5031727;28;20505;-59
2021/10/08 01:40:13;;;;;;;39.22;17.55;;;;;;;;;;5032069;28;20049;-58
2021/10/08 01:42:40;;;;;;;34.97;16.35;;;;;;;;;;5031949;28;20056;-55
2021/10/08 01:45:09;;;;;;;34.33;15.02;;;;;;;;;;5032138;28;20409;-59
2021/10/08 01:47:36;;;;;;;38.85;17.35;;;;;;;;;;5031831;28;20413;-60
2021/10/08 01:50:04;;;;;;;36.25;17.80;;;;;;;;;;5031871;28;20091;-61
2021/10/08 01:52:31;;;;;;;37.72;16.95;;;;;;;;;;5031860;28;20045;-59
2021/10/08 01:54:59;;;;;;;40.00;18.08;;;;;;;;;;5032097;28;20132;-56
2021/10/08 01:57:27;;;;;;;33.90;16.83;;;;;;;;;;5012762;28;20054;-57
2021/10/08 01:59:54;;;;;;;41.15;18.65;;;;;;;;;;5013520;28;20050;-59
2021/10/08 02:02:21;;;;;;;38.72;16.38;;;;;;;;;;5016239;28;20418;-58
2021/10/08 02:04:48;;;;;;;39.38;19.02;;;;;;;;;;5015949;28;20050;-58
2021/10/08 02:07:15;;;;;;;38.13;17.75;;;;;;;;;;5016008;28;20389;-59
2021/10/08 02:09:43;;;;;;;40.15;17.92;;;;;;;;;;5015782;28;20050;-59
2021/10/08 02:12:11;;;;;;;41.85;18.30;;;;;;;;;;5016019;28;20052;-54
2021/10/08 02:14:38;;;;;;;42.42;18.85;;;;;;;;;;5015719;28;20092;-56
2021/10/08 02:17:05;;;;;;;36.00;17.00;;;;;;;;;;5015884;28;20050;-56
2021/10/08 02:19:33;;;;;;;36.45;17.30;;;;;;;;;;5015621;28;20048;-57
2021/10/08 02:22:02;;;;;;;36.70;16.20;;;;;;;;;;5015963;28;20518;-59
2021/10/08 02:24:29;;;;;;;37.88;16.95;;;;;;;;;;5015344;28;20050;-56
2021/10/08 02:26:56;;;;;;;36.33;17.13;;;;;;;;;;5015939;28;20515;-56
2021/10/08 02:29:24;;;;;;;36.10;18.88;;;;;;;;;;5015734;28;20064;-60
2021/10/08 02:31:51;;;;;;;37.38;17.17;;;;;;;;;;5015520;28;20061;-55
2021/10/08 02:34:18;;;;;;;40.13;19.95;;;;;;;;;;5015337;28;20052;-57
2021/10/08 02:36:45;;;;;;;33.00;15.75;;;;;;;;;;5015419;28;20060;-58
2021/10/08 02:39:13;;;;;;;39.50;19.27;;;;;;;;;;5015296;28;20392;-58
2021/10/08 02:41:40;;;;;;;39.97;17.27;;;;;;;;;;5015685;28;20487;-59
2021/10/08 02:44:07;;;;;;;40.58;18.77;;;;;;;;;;5015301;28;20091;-58
2021/10/08 02:46:35;;;;;;;37.53;17.77;;;;;;;;;;5015143;28;20046;-56
2021/10/08 02:49:02;;;;;;;35.42;17.23;;;;;;;;;;5015212;28;20064;-59
2021/10/08 02:51:33;;;;;;;39.17;17.35;;;;;;;;;;5014880;28;20053;-60
2021/10/08 02:54:00;;;;;;;32.58;15.73;;;;;;;;;;5015385;28;20470;-57
2021/10/08 02:56:27;;;;;;;33.67;15.98;;;;;;;;;;5014991;28;20124;-60
2021/10/08 02:58:55;;;;;;;35.03;16.77;;;;;;;;;;5015029;28;20057;-57
2021/10/08 03:01:22;;;;;;;43.58;20.08;;;;;;;;;;5014885;28;20061;-58
2021/10/08 03:03:51;;;;;;;29.20;14.75;;;;;;;;;;5014861;28;20050;-57
2021/10/08 03:06:18;;;;;;;33.97;16.05;;;;;;;;;;5014511;28;20054;-57
2021/10/08 03:08:45;;;;;;;33.58;16.67;;;;;;;;;;5014922;28;20046;-55
2021/10/08 03:11:13;;;;;;;38.53;18.85;;;;;;;;;;5014107;28;20414;-57
2021/10/08 03:13:40;;;;;;;35.47;17.75;;;;;;;;;;5014724;28;20050;-60
2021/10/08 03:16:07;;;;;;;33.92;16.90;;;;;;;;;;5014647;28;20426;-58
2021/10/08 03:18:34;;;;;;;40.45;17.52;;;;;;;;;;5014763;28;20252;-59
2021/10/08 03:21:02;;;;;;;35.95;18.95;;;;;;;;;;5014783;28;20042;-58
2021/10/08 03:23:29;;;;;;;39.60;18.05;;;;;;;;;;5015130;28;20495;-56
2021/10/08 03:25:56;;;;;;;33.17;15.38;;;;;;;;;;5014784;28;20050;-59
2021/10/08 03:28:23;;;;;;;37.20;16.58;;;;;;;;;;5014654;28;20054;-58
2021/10/08 03:30:51;;;;;;;37.22;17.35;;;;;;;;;;5014314;28;20057;-59
2021/10/08 03:33:18;;;;;;;36.40;17.27;;;;;;;;;;5014558;28;20050;-57
2021/10/08 03:35:45;;;;;;;39.58;18.88;;;;;;;;;;5014279;28;20084;-58
2021/10/08 03:38:16;;;;;;;32.83;16.60;;;;;;;;;;5014648;28;20385;-57
2021/10/08 03:40:48;;;;;;;39.30;17.23;;;;;;;;;;5014137;28;20080;-59
2021/10/08 03:43:15;;;;;;;38.53;18.25;;;;;;;;;;5014591;28;20057;-57
2021/10/08 03:45:50;;;;;;;32.30;16.10;;;;;;;;;;5014224;28;20081;-58
2021/10/08 03:48:33;;;;;;;30.00;16.10;;;;;;;;;;5014524;28;20054;-57
2021/10/08 03:51:01;;;;;;;32.60;16.50;;;;;;;;;;5014141;28;20077;-58
2021/10/08 03:53:29;;;;;;;31.15;16.13;;;;;;;;;;5013960;28;20112;-60
2021/10/08 03:55:56;;;;;;;33.85;16.90;;;;;;;;;;5020491;28;20057;-59
2021/10/08 03:58:23;;;;;;;34.42;16.92;;;;;;;;;;5033665;28;20050;-59
2021/10/08 04:00:50;;;;;;;31.58;15.60;;;;;;;;;;5033743;28;20490;-59
2021/10/08 04:03:17;;;;;;;34.90;15.75;;;;;;;;;;5033405;28;20053;-54
2021/10/08 04:05:45;;;;;;;30.55;15.50;;;;;;;;;;5033734;28;20413;-59
2021/10/08 04:08:12;;;;;;;32.80;16.40;;;;;;;;;;5033498;28;20054;-58
2021/10/08 04:10:40;;;;;;;27.23;14.80;;;;;;;;;;5033332;28;20056;-58
2021/10/08 04:13:07;;;;;;;27.73;14.65;;;;;;;;;;5033783;28;20514;-61
2021/10/08 04:15:34;;;;;;;24.77;13.88;;;;;;;;;;5033486;28;20532;-59
2021/10/08 04:18:01;;;;;;;23.42;12.88;;;;;;;;;;5034000;28;20399;-57
2021/10/08 04:20:28;;;;;;;26.85;14.55;;;;;;;;;;5033035;28;20399;-58
2021/10/08 04:22:55;;;;;;;25.17;14.27;;;;;;;;;;5033100;28;20462;-59
2021/10/08 04:25:22;;;;;;;26.20;14.48;;;;;;;;;;5032934;28;20049;-56
2021/10/08 04:27:50;;;;;;;25.60;14.32;;;;;;;;;;5033055;28;20053;-61
2021/10/08 04:30:17;;;;;;;29.70;13.88;;;;;;;;;;5033079;28;20053;-59
2021/10/08 04:32:44;;;;;;;25.73;14.00;;;;;;;;;;5032931;28;20057;-59
2021/10/08 04:35:11;;;;;;;25.08;13.98;;;;;;;;;;5032963;28;20061;-60
2021/10/08 04:37:38;;;;;;;27.02;13.48;;;;;;;;;;5032877;28;20053;-59
2021/10/08 04:40:06;;;;;;;25.50;15.38;;;;;;;;;;5032881;28;20049;-58
2021/10/08 04:42:33;;;;;;;24.55;12.63;;;;;;;;;;5032932;28;20053;-56
2021/10/08 04:45:03;;;;;;;28.08;13.98;;;;;;;;;;5033072;28;20045;-51
2021/10/08 04:47:30;;;;;;;27.15;13.90;;;;;;;;;;5032883;28;20060;-60
2021/10/08 04:49:57;;;;;;;24.10;14.95;;;;;;;;;;5032837;28;20050;-58
2021/10/08 04:52:24;;;;;;;24.00;13.13;;;;;;;;;;5032820;28;20057;-61
2021/10/08 04:54:51;;;;;;;23.83;13.38;;;;;;;;;;5032752;28;20415;-56
2021/10/08 04:57:18;;;;;;;26.63;12.90;;;;;;;;;;5014746;28;20046;-57
2021/10/08 04:59:45;;;;;;;27.83;14.80;;;;;;;;;;5012727;28;20056;-60
2021/10/08 05:02:14;;;;;;;25.60;13.73;;;;;;;;;;5012842;28;20071;-60
2021/10/08 05:04:41;;;;;;;28.13;15.25;;;;;;;;;;5012735;28;20061;-56
2021/10/08 05:07:07;;;;;;;28.30;14.30;;;;;;;;;;5012802;28;20422;-58
2021/10/08 05:09:34;;;;;;;24.55;13.35;;;;;;;;;;5013241;28;20054;-56
2021/10/08 05:12:01;;;;;;;30.20;15.30;;;;;;;;;;5012839;28;20049;-58
2021/10/08 05:14:28;;;;;;;29.05;14.52;;;;;;;;;;5012564;28;20050;-61
2021/10/08 05:16:55;;;;;;;28.60;15.55;;;;;;;;;;5012728;28;20483;-58
2021/10/08 05:19:24;;;;;;;24.98;14.68;;;;;;;;;;5012601;28;20580;-61
2021/10/08 05:21:54;;;;;;;29.08;15.70;;;;;;;;;;5012612;28;20144;-61
2021/10/08 05:24:21;;;;;;;28.67;15.43;;;;;;;;;;5012537;28;20452;-60
2021/10/08 05:26:48;;;;;;;30.95;16.55;;;;;;;;;;5012525;28;20050;-60
2021/10/08 05:29:15;;;;;;;28.60;17.42;;;;;;;;;;5012621;28;20534;-59
2021/10/08 05:31:42;;;;;;;31.98;16.33;;;;;;;;;;5012179;28;20527;-58
2021/10/08 05:34:09;;;;;;;34.83;16.20;;;;;;;;;;5012083;28;20411;-57
2021/10/08 05:36:37;;;;;;;30.83;15.48;;;;;;;;;;5012417;28;20050;-60
2021/10/08 05:39:05;;;;;;;29.02;15.90;;;;;;;;;;5012253;28;20050;-55
2021/10/08 05:41:32;;;;;;;34.13;16.60;;;;;;;;;;5012585;28;20045;-59
2021/10/08 05:43:59;;;;;;;31.40;15.77;;;;;;;;;;5012220;28;20053;-57
2021/10/08 05:46:26;;;;;;;32.03;16.40;;;;;;;;;;5012119;28;20054;-60
2021/10/08 05:48:53;;;;;;;33.13;16.60;;;;;;;;;;5012252;28;20050;-56
2021/10/08 05:51:20;;;;;;;38.22;18.63;;;;;;;;;;5012089;28;20064;-57
2021/10/08 05:53:48;;;;;;;37.70;19.85;;;;;;;;;;5012494;28;20422;-59
2021/10/08 05:56:15;;;;;;;52.13;26.58;;;;;;;;;;5012169;28;20053;-57
2021/10/08 05:58:42;;;;;;;51.90;26.92;;;;;;;;;;5012067;28;20050;-58
2021/10/08 06:01:09;;;;;;;37.67;19.95;;;;;;;;;;5012101;28;20057;-58
2021/10/08 06:03:37;;;;;;;43.25;18.50;;;;;;;;;;5034985;22;20047;-58
2021/10/08 06:06:04;;;;;;;39.95;18.88;;;;;;;;;;5070815;28;20102;-60
2021/10/08 06:08:31;;;;;;;35.08;16.98;;;;;;;;;;5071540;28;20556;-60
2021/10/08 06:11:00;;;;;;;32.00;17.00;;;;;;;;;;5059842;28;20056;-58
2021/10/08 06:13:28;;;;;;;40.08;19.13;;;;;;;;;;5050936;28;20041;-60
2021/10/08 06:15:55;;;;;;;36.10;17.60;;;;;;;;;;5051912;28;20131;-59
2021/10/08 06:18:22;;;;;;;34.70;18.30;;;;;;;;;;5051451;28;20695;-60
2021/10/08 06:20:49;;;;;;;34.70;17.02;;;;;;;;;;5051201;28;20053;-60
2021/10/08 06:23:16;;;;;;;37.05;18.27;;;;;;;;;;5051166;28;20059;-60
2021/10/08 06:25:43;;;;;;;34.35;16.77;;;;;;;;;;5051292;28;20094;-58
2021/10/08 06:28:12;;;;;;;41.10;17.25;;;;;;;;;;5051199;28;20053;-58
2021/10/08 06:30:39;;;;;;;36.55;17.90;;;;;;;;;;5051189;28;20049;-59
2021/10/08 06:33:06;;;;;;;44.22;21.23;;;;;;;;;;5051343;28;20045;-60
2021/10/08 06:35:33;;;;;;;33.17;18.60;;;;;;;;;;5051148;28;20041;-59
2021/10/08 06:38:00;;;;;;;41.90;19.58;;;;;;;;;;5051164;28;20045;-58
2021/10/08 06:40:27;;;;;;;36.65;17.73;;;;;;;;;;5050905;28;20551;-60
2021/10/08 06:42:54;;;;;;;44.60;19.88;;;;;;;;;;5050941;28;20405;-60
2021/10/08 06:45:25;;;;;;;37.63;19.35;;;;;;;;;;5050766;28;20056;-60
2021/10/08 06:47:52;;;;;;;35.25;18.60;;;;;;;;;;5053956;28;20110;-58
2021/10/08 06:50:20;;;;;;;36.65;17.90;;;;;;;;;;5054739;28;20089;-60
2021/10/08 06:52:46;;;;;;;36.83;18.23;;;;;;;;;;5054725;28;20049;-59
2021/10/08 06:55:14;;;;;;;41.00;19.77;;;;;;;;;;5054340;28;20152;-61
2021/10/08 06:57:41;;;;;;;41.47;18.83;;;;;;;;;;5054714;28;20041;-60
2021/10/08 07:00:09;;;;;;;39.30;19.60;;;;;;;;;;5054090;28;20149;-59
2021/10/08 07:02:48;;;;;;;40.58;18.58;;;;;;;;;;5053152;28;20049;-60
2021/10/08 07:05:15;;;;;;;37.50;18.48;;;;;;;;;;5052113;28;20064;-60
2021/10/08 07:07:42;;;;;;;42.40;18.67;;;;;;;;;;5052329;28;20094;-59
2021/10/08 07:10:10;;;;;;;42.30;19.42;;;;;;;;;;5052571;28;20053;-60
2021/10/08 07:12:37;;;;;;;41.45;20.60;;;;;;;;;;5051614;28;20049;-59
2021/10/08 07:15:06;;;;;;;40.40;18.92;;;;;;;;;;5052049;28;20040;-60
2021/10/08 07:17:38;;;;;;;45.25;20.58;;;;;;;;;;5051984;28;20118;-60
2021/10/08 07:20:08;;;;;;;68.97;33.25;;;;;;;;;;5052271;28;20049;-59
2021/10/08 07:22:36;;;;;;;51.72;24.83;;;;;;;;;;5052164;28;20136;-59
2021/10/08 07:25:04;;;;;;;45.50;20.15;;;;;;;;;;5035460;28;20050;-59
2021/10/08 07:27:31;;;;;;;49.75;22.60;;;;;;;;;;5031995;28;20049;-59
2021/10/08 07:29:58;;;;;;;48.47;23.77;;;;;;;;;;5031746;28;20184;-60
2021/10/08 07:32:27;;;;;;;49.53;22.20;;;;;;;;;;5031489;28;20052;-59
2021/10/08 07:34:54;;;;;;;48.97;21.70;;;;;;;;;;5031588;28;20538;-59
2021/10/08 07:37:23;;;;;;;57.20;31.98;;;;;;;;;;5031073;28;20479;-59
2021/10/08 07:39:50;;;;;;;51.55;25.17;;;;;;;;;;5031470;28;20488;-60
2021/10/08 07:42:17;;;;;;;52.05;23.92;;;;;;;;;;5031467;28;20042;-59
2021/10/08 07:44:44;;;;;;;51.83;22.20;;;;;;;;;;5031485;28;20042;-66
2021/10/08 07:47:11;;;;;;;43.53;19.60;;;;;;;;;;5031194;28;20046;-62
2021/10/08 07:49:38;;;;;;;45.97;21.25;;;;;;;;;;5031262;28;20075;-63
2021/10/08 07:52:05;;;;;;;53.25;23.75;;;;;;;;;;5031251;28;20041;-64
2021/10/08 07:54:34;;;;;;;40.80;20.05;;;;;;;;;;5030817;28;20156;-62
2021/10/08 07:57:01;;;;;;;47.13;20.75;;;;;;;;;;5046639;28;20041;-62
2021/10/08 07:59:31;;;;;;;45.22;21.13;;;;;;;;;;5051215;28;20520;-62
2021/10/08 08:01:58;;;;;;;54.38;23.92;;;;;;;;;;5051080;28;20040;-62
2021/10/08 08:04:25;;;;;;;46.45;22.33;;;;;;;;;;5050573;28;20049;-61
2021/10/08 08:06:52;;;;;;;43.15;20.52;;;;;;;;;;5051001;28;20049;-62
2021/10/08 08:09:19;;;;;;;43.30;20.90;;;;;;;;;;5050830;28;20144;-62
2021/10/08 08:11:47;;;;;;;43.95;20.67;;;;;;;;;;5050861;28;20498;-61
2021/10/08 08:14:14;;;;;;;44.95;23.13;;;;;;;;;;5050165;28;20051;-62
2021/10/08 08:16:41;;;;;;;42.42;20.65;;;;;;;;;;5051189;28;20539;-61
2021/10/08 08:19:10;;;;;;;43.60;21.40;;;;;;;;;;5050867;28;20045;-62
2021/10/08 08:21:37;;;;;;;45.75;21.40;;;;;;;;;;5050650;28;20053;-62
2021/10/08 08:24:04;;;;;;;46.50;20.85;;;;;;;;;;5050798;28;20067;-62
2021/10/08 08:26:31;;;;;;;47.60;22.42;;;;;;;;;;5050626;28;20051;-62
2021/10/08 08:29:00;;;;;;;47.40;23.05;;;;;;;;;;5050512;28;20095;-62
2021/10/08 08:31:27;;;;;;;51.65;24.48;;;;;;;;;;5050513;28;20060;-62
2021/10/08 08:33:54;;;;;;;43.63;21.15;;;;;;;;;;5050457;28;20467;-62
2021/10/08 08:36:22;;;;;;;52.22;25.85;;;;;;;;;;5050765;28;20084;-62
2021/10/08 08:38:49;;;;;;;56.83;29.25;;;;;;;;;;5050642;28;20493;-62
2021/10/08 08:41:17;;;;;;;61.05;28.63;;;;;;;;;;5050238;28;20119;-63
2021/10/08 08:43:44;;;;;;;39.70;19.55;;;;;;;;;;5050257;28;20059;-62
2021/10/08 08:46:12;;;;;;;43.75;20.30;;;;;;;;;;5050621;28;20053;-63
2021/10/08 08:48:41;;;;;;;45.17;21.08;;;;;;;;;;5050116;28;20049;-63
2021/10/08 08:51:08;;;;;;;44.15;22.00;;;;;;;;;;5050758;28;20422;-62
2021/10/08 08:53:35;;;;;;;42.90;19.15;;;;;;;;;;5050238;28;20045;-62
2021/10/08 08:56:02;;;;;;;60.08;30.13;;;;;;;;;;5050134;28;20048;-63
2021/10/08 08:58:30;;;;;;;35.25;17.38;;;;;;;;;;5050391;28;20045;-63
2021/10/08 09:00:58;;;;;;;49.40;22.27;;;;;;;;;;5049945;28;20053;-62
2021/10/08 09:03:27;;;;;;;37.67;19.23;;;;;;;;;;5049662;28;20106;-63
2021/10/08 09:05:54;;;;;;;40.20;19.13;;;;;;;;;;5050968;28;20445;-61
2021/10/08 09:08:31;;;;;;;37.10;17.67;;;;;;;;;;5050245;28;20076;-61
2021/10/08 09:10:59;;;;;;;34.80;17.25;;;;;;;;;;5049443;28;20132;-61
2021/10/08 09:13:27;;;;;;;37.55;18.40;;;;;;;;;;5050189;28;20049;-60
2021/10/08 09:15:57;;;;;;;38.28;18.83;;;;;;;;;;5050363;28;20063;-61
2021/10/08 09:18:26;;;;;;;37.13;16.97;;;;;;;;;;5049929;28;20045;-60
2021/10/08 09:21:09;;;;;;;30.38;16.00;;;;;;;;;;5049308;28;20053;-61
2021/10/08 09:23:37;;;;;;;33.50;16.80;;;;;;;;;;5049935;28;20048;-61
2021/10/08 09:26:13;;;;;;;37.05;18.80;;;;;;;;;;5049845;28;20055;-62
2021/10/08 09:28:52;;;;;;;31.33;16.55;;;;;;;;;;5049648;28;20044;-61
2021/10/08 09:31:25;;;;;;;43.60;23.50;;;;;;;;;;5049412;28;20053;-62
2021/10/08 09:34:11;;;;;;;39.40;20.85;;;;;;;;;;5049455;28;20531;-61
2021/10/08 09:36:39;;;;;;;31.70;15.60;;;;;;;;;;5049682;28;20049;-61
2021/10/08 09:39:17;;;;;;;41.10;21.92;;;;;;;;;;5049860;28;20513;-62
2021/10/08 09:41:45;;;;;;;44.70;23.25;;;;;;;;;;5049290;28;20053;-62
2021/10/08 09:44:12;;;;;;;39.13;21.45;;;;;;;;;;5049343;28;20057;-62
2021/10/08 09:46:39;;;;;;;30.63;17.45;;;;;;;;;;5050131;28;20075;-62
2021/10/08 09:49:19;;;;;;;39.67;21.75;;;;;;;;;;5049919;28;20049;-62
2021/10/08 09:51:46;;;;;;;40.60;20.17;;;;;;;;;;5049955;28;20060;-66
2021/10/08 09:54:13;;;;;;;35.92;16.98;;;;;;;;;;5049460;28;20068;-61
2021/10/08 09:56:42;;;;;;;33.90;19.23;;;;;;;;;;5037130;28;20048;-61
2021/10/08 09:59:11;;;;;;;30.58;17.30;;;;;;;;;;5029739;28;20056;-61
2021/10/08 10:01:40;;;;;;;27.85;15.85;;;;;;;;;;5029839;28;20049;-61
2021/10/08 10:04:10;;;;;;;31.00;15.13;;;;;;;;;;5029159;28;20045;-63
2021/10/08 10:06:39;;;;;;;32.33;18.45;;;;;;;;;;5029559;28;20420;-62
2021/10/08 10:09:07;;;;;;;28.10;16.95;;;;;;;;;;5029651;28;20041;-62
2021/10/08 10:11:34;;;;;;;42.10;24.55;;;;;;;;;;5028963;28;20054;-62
2021/10/08 10:14:02;;;;;;;23.30;14.02;;;;;;;;;;5029438;28;20049;-62
2021/10/08 10:16:31;;;;;;;23.83;12.20;;;;;;;;;;5029560;28;20057;-62
2021/10/08 10:19:00;;;;;;;24.00;13.30;;;;;;;;;;5029084;28;20064;-62
2021/10/08 10:21:29;;;;;;;23.38;13.30;;;;;;;;;;5031416;28;20052;-62
2021/10/08 10:23:58;;;;;;;35.15;19.38;;;;;;;;;;5032868;28;20046;-62
2021/10/08 10:26:27;;;;;;;19.02;11.30;;;;;;;;;;5033538;28;20418;-62
2021/10/08 10:28:55;;;;;;;22.95;14.35;;;;;;;;;;5033031;28;20055;-62
2021/10/08 10:31:23;;;;;;;20.73;11.82;;;;;;;;;;5032926;28;20072;-62
2021/10/08 10:33:50;;;;;;;20.63;10.25;;;;;;;;;;5032781;28;20045;-64
2021/10/08 10:36:24;;;;;;;16.58;9.48;;;;;;;;;;5032725;28;20056;-60
2021/10/08 10:38:53;;;;;;;17.35;10.98;;;;;;;;;;5033069;28;20467;-66
2021/10/08 10:41:25;;;;;;;16.05;9.05;;;;;;;;;;5032783;28;20418;-65
2021/10/08 10:44:19;;;;;;;15.95;9.75;;;;;;;;;;5042154;28;20120;-66
2021/10/08 10:46:50;;;;;;;17.13;9.73;;;;;;;;;;5042862;28;20053;-67
2021/10/08 10:52:33;;;;;;;19.90;10.82;;;;;;;;;;5051445;28;20053;-59
2021/10/08 10:55:12;;;;;;;19.08;10.00;;;;;;;;;;5048178;28;20051;-58
2021/10/08 10:58:08;;;;;;;18.70;10.00;;;;;;;;;;5041451;28;20497;-60
2021/10/08 11:00:41;;;;;;;18.25;10.68;;;;;;;;;;5040809;28;20075;-59
2021/10/08 11:03:14;;;;;;;17.13;10.10;;;;;;;;;;5041629;28;20037;-60
2021/10/08 11:06:03;;;;;;;12.90;7.30;;;;;;;;;;5040778;28;20053;-60
2021/10/08 11:08:30;;;;;;;13.27;6.93;;;;;;;;;;5035951;28;20384;-67
2021/10/08 11:11:18;;;;;;;15.02;8.20;;;;;;;;;;5043467;28;20045;-66
2021/10/08 11:13:47;;;;;;;14.73;8.57;;;;;;;;;;5042835;28;20115;-61
2021/10/08 11:16:16;;;;;;;13.75;7.43;;;;;;;;;;5034470;28;20056;-60
2021/10/08 11:18:45;;;;;;;13.20;6.85;;;;;;;;;;5032427;28;20478;-61
2021/10/08 11:21:34;;;;;;;17.95;8.65;;;;;;;;;;5032019;28;20140;-61
2021/10/08 11:24:03;;;;;;;15.80;8.38;;;;;;;;;;5031485;28;20045;-61
2021/10/08 11:26:31;;;;;;;16.42;8.55;;;;;;;;;;5034524;28;20435;-60
2021/10/08 11:29:00;;;;;;;14.18;7.45;;;;;;;;;;5042591;28;20387;-60
2021/10/08 11:31:27;;;;;;;14.73;7.65;;;;;;;;;;5042962;28;20052;-60
2021/10/08 11:33:55;;;;;;;26.85;13.52;;;;;;;;;;5038990;28;20044;-60
2021/10/08 11:36:26;;;;;;;23.30;10.10;;;;;;;;;;5044198;28;20048;-59
2021/10/08 11:39:13;;;;;;;57.20;22.40;;;;;;;;;;5040979;28;20041;-60
2021/10/08 11:41:43;;;;;;;21.33;11.00;;;;;;;;;;5041851;28;20056;-61
2021/10/08 11:44:18;;;;;;;17.65;10.23;;;;;;;;;;5040646;28;20383;-59
2021/10/08 11:47:17;;;;;;;23.95;11.00;;;;;;;;;;5040456;28;20072;-61
2021/10/08 11:50:06;;;;;;;22.00;11.95;;;;;;;;;;5042271;28;20064;-60
2021/10/08 11:52:34;;;;;;;23.70;11.30;;;;;;;;;;5039811;28;20042;-60
2021/10/08 11:55:10;;;;;;;23.55;11.65;;;;;;;;;;5042085;28;20037;-61
2021/10/08 11:58:11;;;;;;;21.25;11.68;;;;;;;;;;5042029;28;20184;-61
2021/10/08 12:00:40;;;;;;;22.35;11.88;;;;;;;;;;5042031;28;20057;-61
2021/10/08 12:03:09;;;;;;;20.70;11.27;;;;;;;;;;5039753;28;20482;-60
2021/10/08 12:05:45;;;;;;;18.88;10.60;;;;;;;;;;5040662;28;20060;-61
2021/10/08 12:08:14;;;;;;;22.02;11.40;;;;;;;;;;5041748;28;20100;-61
2021/10/08 12:10:55;;;;;;;24.65;12.75;;;;;;;;;;5059345;22;21371;-63
2021/10/08 12:13:34;;;;;;;23.75;12.18;;;;;;;;;;5092379;28;20052;-65
2021/10/08 12:16:01;;;;;;;23.33;12.95;;;;;;;;;;5091731;28;20060;-65
2021/10/08 12:18:28;;;;;;;24.20;12.38;;;;;;;;;;5092056;28;20055;-65
2021/10/08 12:21:09;;;;;;;25.55;12.35;;;;;;;;;;5091701;28;20048;-65
2021/10/08 12:23:36;;;;;;;26.08;13.90;;;;;;;;;;5091732;28;20106;-64
2021/10/08 12:26:03;;;;;;;25.15;13.23;;;;;;;;;;5071408;28;20045;-65
2021/10/08 12:28:31;;;;;;;27.10;13.80;;;;;;;;;;5071517;28;20091;-64
2021/10/08 12:31:00;;;;;;;23.73;13.27;;;;;;;;;;5071344;28;20058;-65
2021/10/08 12:33:29;;;;;;;30.33;16.77;;;;;;;;;;5071767;28;20049;-65
2021/10/08 12:36:17;;;;;;;28.75;15.15;;;;;;;;;;5071369;28;20139;-64
2021/10/08 12:39:05;;;;;;;30.13;16.02;;;;;;;;;;5071107;28;20048;-65
2021/10/08 12:41:40;;;;;;;30.33;16.20;;;;;;;;;;5071052;28;20067;-66
2021/10/08 12:44:12;;;;;;;39.60;21.65;;;;;;;;;;5070908;28;20067;-65
2021/10/08 12:46:40;;;;;;;34.95;17.95;;;;;;;;;;5071413;28;20052;-64
2021/10/08 12:49:08;;;;;;;31.58;16.33;;;;;;;;;;5071145;28;20151;-65
2021/10/08 12:51:51;;;;;;;30.38;15.38;;;;;;;;;;5070812;28;20044;-65
2021/10/08 12:54:23;;;;;;;28.58;15.63;;;;;;;;;;5071271;28;20076;-65
2021/10/08 12:57:12;;;;;;;34.13;16.67;;;;;;;;;;5071761;28;20049;-64
2021/10/08 12:59:52;;;;;;;27.00;14.77;;;;;;;;;;5070789;28;20052;-64
2021/10/08 13:02:21;;;;;;;26.20;14.98;;;;;;;;;;5070859;28;20047;-65
2021/10/08 13:04:48;;;;;;;26.83;14.43;;;;;;;;;;5070719;28;20048;-64
2021/10/08 13:07:18;;;;;;;31.30;16.27;;;;;;;;;;5070796;28;20052;-64
2021/10/08 13:10:08;;;;;;;35.13;17.77;;;;;;;;;;5071314;28;20084;-65
2021/10/08 13:12:53;;;;;;;35.60;17.80;;;;;;;;;;5070848;28;20037;-65
2021/10/08 13:15:25;;;;;;;30.90;15.45;;;;;;;;;;5071127;28;20056;-66
2021/10/08 13:18:05;;;;;;;27.52;15.13;;;;;;;;;;5070793;28;20106;-64
2021/10/08 13:20:33;;;;;;;32.15;16.33;;;;;;;;;;5070769;28;20087;-66
2021/10/08 13:23:00;;;;;;;26.83;14.68;;;;;;;;;;5070897;28;20395;-65
2021/10/08 13:25:27;;;;;;;29.95;14.85;;;;;;;;;;5069625;28;20053;-65
2021/10/08 13:27:54;;;;;;;30.02;15.88;;;;;;;;;;5062392;28;20080;-65
2021/10/08 13:30:23;;;;;;;28.55;14.80;;;;;;;;;;5067148;28;20105;-65
2021/10/08 13:32:50;;;;;;;29.98;16.02;;;;;;;;;;5058072;28;20041;-67
2021/10/08 13:35:17;;;;;;;28.00;14.73;;;;;;;;;;5066401;28;20049;-66
2021/10/08 13:37:44;;;;;;;26.73;14.80;;;;;;;;;;5070506;28;20058;-69
2021/10/08 13:40:11;;;;;;;28.73;15.55;;;;;;;;;;5069924;28;20051;-65
2021/10/08 13:42:41;;;;;;;32.17;16.90;;;;;;;;;;5066214;28;20390;-66
2021/10/08 13:45:09;;;;;;;28.98;15.63;;;;;;;;;;5064656;28;20464;-64
2021/10/08 13:47:38;;;;;;;26.73;14.98;;;;;;;;;;5069950;28;20080;-65
2021/10/08 13:50:06;;;;;;;29.05;15.65;;;;;;;;;;5070545;28;20048;-65
2021/10/08 13:52:33;;;;;;;26.95;14.60;;;;;;;;;;5070905;28;20044;-65
2021/10/08 13:55:00;;;;;;;34.28;16.60;;;;;;;;;;5071136;28;20048;-66
2021/10/08 13:57:27;;;;;;;29.85;15.10;;;;;;;;;;5074561;28;20080;-64
2021/10/08 13:59:54;;;;;;;27.75;15.27;;;;;;;;;;5074415;28;20443;-65
2021/10/08 14:02:23;;;;;;;29.20;16.17;;;;;;;;;;5074769;28;20056;-65
2021/10/08 14:04:55;;;;;;;29.83;14.90;;;;;;;;;;5074331;28;20078;-65
2021/10/08 14:10:20;;;;;;;26.45;13.18;;;;;;;;;;5065364;28;20084;-65
2021/10/08 14:12:48;;;;;;;27.90;14.15;;;;;;;;;;5074069;28;20094;-65
2021/10/08 14:15:15;;;;;;;27.35;16.45;;;;;;;;;;5074331;28;20090;-64
2021/10/08 14:17:43;;;;;;;32.20;16.90;;;;;;;;;;5073974;28;20507;-64
2021/10/08 14:20:13;;;;;;;30.40;17.20;;;;;;;;;;5074105;28;20044;-65
2021/10/08 14:22:41;;;;;;;27.20;14.43;;;;;;;;;;5073981;28;20098;-64
2021/10/08 14:25:09;;;;;;;31.73;16.13;;;;;;;;;;5074086;28;20044;-65
2021/10/08 14:27:36;;;;;;;32.22;16.33;;;;;;;;;;5074673;28;20394;-65
2021/10/08 14:30:05;;;;;;;33.58;17.77;;;;;;;;;;5074072;28;20063;-65
2021/10/08 14:32:32;;;;;;;32.97;17.23;;;;;;;;;;5074186;28;20055;-65
2021/10/08 14:35:00;;;;;;;35.75;16.88;;;;;;;;;;5073577;28;20068;-65
2021/10/08 14:37:28;;;;;;;36.60;17.27;;;;;;;;;;5074030;28;20464;-64